sensor_id;sensor_type;location;lat;lon;timestamp;P1;durP1;ratioP1;P2;durP2;ratioP2
10725;SDS011;5414;59.782;16.378;2023-06-14T00:00:19;3.87;;;2.97;;
10725;SDS011;5414;59.782;16.378;2023-06-14T00:02:45;3.50;;;3.20;;
10725;SDS011;5414;59.782;16.378;2023-06-14T00:05:11;2.93;;;2.73;;
10725;SDS011;5414;59.782;16.378;2023-06-14T00:07:38;3.43;;;2.93;;
10725;SDS011;5414;59.782;16.378;2023-06-14T00:10:08;2.90;;;2.70;;
10725;SDS011;5414;59.782;16.378;2023-06-14T00:12:34;3.10;;;2.90;;
10725;SDS011;5414;59.782;16.378;2023-06-14T00:15:01;3.20;;;2.90;;
10725;SDS011;5414;59.782;16.378;2023-06-14T00:17:27;3.60;;;3.30;;
10725;SDS011;5414;59.782;16.378;2023-06-14T00:19:58;4.90;;;3.47;;
10725;SDS011;5414;59.782;16.378;2023-06-14T00:22:24;3.30;;;3.00;;
10725;SDS011;5414;59.782;16.378;2023-06-14T00:24:50;3.47;;;3.10;;
10725;SDS011;5414;59.782;16.378;2023-06-14T00:27:16;3.43;;;3.17;;
10725;SDS011;5414;59.782;16.378;2023-06-14T00:29:43;3.57;;;3.10;;
10725;SDS011;5414;59.782;16.378;2023-06-14T00:32:09;3.60;;;3.00;;
10725;SDS011;5414;59.782;16.378;2023-06-14T00:34:35;3.30;;;3.00;;
10725;SDS011;5414;59.782;16.378;2023-06-14T00:37:01;3.50;;;3.20;;
10725;SDS011;5414;59.782;16.378;2023-06-14T00:39:27;3.30;;;3.00;;
10725;SDS011;5414;59.782;16.378;2023-06-14T00:41:53;3.23;;;2.93;;
10725;SDS011;5414;59.782;16.378;2023-06-14T00:44:19;3.47;;;2.90;;
10725;SDS011;5414;59.782;16.378;2023-06-14T00:46:46;2.90;;;2.70;;
10725;SDS011;5414;59.782;16.378;2023-06-14T00:49:15;3.40;;;3.10;;
10725;SDS011;5414;59.782;16.378;2023-06-14T00:51:42;3.47;;;3.17;;
10725;SDS011;5414;59.782;16.378;2023-06-14T00:54:08;4.43;;;3.37;;
10725;SDS011;5414;59.782;16.378;2023-06-14T00:56:37;4.00;;;3.07;;
10725;SDS011;5414;59.782;16.378;2023-06-14T00:59:04;3.07;;;2.77;;
10725;SDS011;5414;59.782;16.378;2023-06-14T01:01:31;3.30;;;3.00;;
10725;SDS011;5414;59.782;16.378;2023-06-14T01:04:00;3.43;;;3.13;;
10725;SDS011;5414;59.782;16.378;2023-06-14T01:09:29;3.73;;;2.97;;
10725;SDS011;5414;59.782;16.378;2023-06-14T01:12:08;3.10;;;2.90;;
10725;SDS011;5414;59.782;16.378;2023-06-14T01:14:36;3.80;;;3.00;;
10725;SDS011;5414;59.782;16.378;2023-06-14T01:17:02;3.13;;;2.83;;
10725;SDS011;5414;59.782;16.378;2023-06-14T01:19:29;3.40;;;3.10;;
10725;SDS011;5414;59.782;16.378;2023-06-14T01:21:56;2.80;;;2.60;;
10725;SDS011;5414;59.782;16.378;2023-06-14T01:24:23;20.73;;;4.70;;
10725;SDS011;5414;59.782;16.378;2023-06-14T01:26:50;19.90;;;5.37;;
10725;SDS011;5414;59.782;16.378;2023-06-14T01:29:20;14.20;;;4.47;;
10725;SDS011;5414;59.782;16.378;2023-06-14T01:31:46;8.20;;;3.60;;
10725;SDS011;5414;59.782;16.378;2023-06-14T01:34:13;6.13;;;3.43;;
10725;SDS011;5414;59.782;16.378;2023-06-14T01:36:39;3.87;;;2.93;;
10725;SDS011;5414;59.782;16.378;2023-06-14T01:39:06;3.50;;;3.20;;
10725;SDS011;5414;59.782;16.378;2023-06-14T01:41:33;3.33;;;2.80;;
10725;SDS011;5414;59.782;16.378;2023-06-14T01:44:00;3.73;;;3.00;;
10725;SDS011;5414;59.782;16.378;2023-06-14T01:46:27;3.43;;;3.13;;
10725;SDS011;5414;59.782;16.378;2023-06-14T01:48:53;3.07;;;2.87;;
10725;SDS011;5414;59.782;16.378;2023-06-14T01:51:19;3.43;;;3.13;;
10725;SDS011;5414;59.782;16.378;2023-06-14T01:53:45;3.40;;;3.10;;
10725;SDS011;5414;59.782;16.378;2023-06-14T01:56:11;3.40;;;3.10;;
10725;SDS011;5414;59.782;16.378;2023-06-14T01:58:37;3.30;;;2.90;;
10725;SDS011;5414;59.782;16.378;2023-06-14T02:01:04;3.27;;;2.97;;
10725;SDS011;5414;59.782;16.378;2023-06-14T02:03:32;5.27;;;3.00;;
10725;SDS011;5414;59.782;16.378;2023-06-14T02:05:59;4.70;;;3.20;;
10725;SDS011;5414;59.782;16.378;2023-06-14T02:08:25;3.13;;;2.90;;
10725;SDS011;5414;59.782;16.378;2023-06-14T02:10:52;3.60;;;3.30;;
10725;SDS011;5414;59.782;16.378;2023-06-14T02:13:18;3.00;;;2.80;;
10725;SDS011;5414;59.782;16.378;2023-06-14T02:15:44;2.80;;;2.60;;
10725;SDS011;5414;59.782;16.378;2023-06-14T02:18:10;3.30;;;3.00;;
10725;SDS011;5414;59.782;16.378;2023-06-14T02:20:36;3.77;;;3.47;;
10725;SDS011;5414;59.782;16.378;2023-06-14T02:23:02;3.60;;;3.30;;
10725;SDS011;5414;59.782;16.378;2023-06-14T02:25:28;3.50;;;3.20;;
10725;SDS011;5414;59.782;16.378;2023-06-14T02:27:54;3.10;;;2.90;;
10725;SDS011;5414;59.782;16.378;2023-06-14T02:30:20;3.60;;;3.30;;
10725;SDS011;5414;59.782;16.378;2023-06-14T02:32:46;5.37;;;3.47;;
10725;SDS011;5414;59.782;16.378;2023-06-14T02:35:13;5.10;;;3.50;;
10725;SDS011;5414;59.782;16.378;2023-06-14T02:37:39;4.10;;;3.37;;
10725;SDS011;5414;59.782;16.378;2023-06-14T02:40:06;3.57;;;3.27;;
10725;SDS011;5414;59.782;16.378;2023-06-14T02:42:34;4.03;;;3.57;;
10725;SDS011;5414;59.782;16.378;2023-06-14T02:45:00;3.40;;;3.10;;
10725;SDS011;5414;59.782;16.378;2023-06-14T02:47:27;3.80;;;3.50;;
10725;SDS011;5414;59.782;16.378;2023-06-14T02:49:53;3.70;;;3.40;;
10725;SDS011;5414;59.782;16.378;2023-06-14T02:52:19;5.70;;;3.50;;
10725;SDS011;5414;59.782;16.378;2023-06-14T02:54:46;4.00;;;3.60;;
10725;SDS011;5414;59.782;16.378;2023-06-14T02:57:12;4.53;;;3.73;;
10725;SDS011;5414;59.782;16.378;2023-06-14T02:59:39;6.47;;;4.00;;
10725;SDS011;5414;59.782;16.378;2023-06-14T03:02:05;4.40;;;4.00;;
10725;SDS011;5414;59.782;16.378;2023-06-14T03:04:31;6.03;;;3.40;;
10725;SDS011;5414;59.782;16.378;2023-06-14T03:07:02;3.63;;;3.17;;
10725;SDS011;5414;59.782;16.378;2023-06-14T03:09:34;10.87;;;3.73;;
10725;SDS011;5414;59.782;16.378;2023-06-14T03:12:00;4.23;;;3.80;;
10725;SDS011;5414;59.782;16.378;2023-06-14T03:14:26;5.10;;;3.60;;
10725;SDS011;5414;59.782;16.378;2023-06-14T03:16:52;3.60;;;3.30;;
10725;SDS011;5414;59.782;16.378;2023-06-14T03:19:21;3.27;;;3.07;;
10725;SDS011;5414;59.782;16.378;2023-06-14T03:21:47;3.27;;;3.07;;
10725;SDS011;5414;59.782;16.378;2023-06-14T03:24:14;5.03;;;3.80;;
10725;SDS011;5414;59.782;16.378;2023-06-14T03:26:41;4.37;;;3.50;;
10725;SDS011;5414;59.782;16.378;2023-06-14T03:29:07;4.20;;;3.80;;
10725;SDS011;5414;59.782;16.378;2023-06-14T03:31:34;4.17;;;3.70;;
10725;SDS011;5414;59.782;16.378;2023-06-14T03:34:03;4.10;;;3.70;;
10725;SDS011;5414;59.782;16.378;2023-06-14T03:36:29;3.93;;;3.63;;
10725;SDS011;5414;59.782;16.378;2023-06-14T03:38:55;4.00;;;3.70;;
10725;SDS011;5414;59.782;16.378;2023-06-14T03:41:22;4.23;;;3.73;;
10725;SDS011;5414;59.782;16.378;2023-06-14T03:43:48;4.27;;;3.90;;
10725;SDS011;5414;59.782;16.378;2023-06-14T03:46:14;3.97;;;3.60;;
10725;SDS011;5414;59.782;16.378;2023-06-14T03:48:40;5.63;;;3.73;;
10725;SDS011;5414;59.782;16.378;2023-06-14T03:51:06;4.83;;;3.77;;
10725;SDS011;5414;59.782;16.378;2023-06-14T03:53:32;5.80;;;3.90;;
10725;SDS011;5414;59.782;16.378;2023-06-14T03:56:00;7.03;;;3.97;;
10725;SDS011;5414;59.782;16.378;2023-06-14T03:58:26;6.03;;;3.50;;
10725;SDS011;5414;59.782;16.378;2023-06-14T04:00:53;7.60;;;4.17;;
10725;SDS011;5414;59.782;16.378;2023-06-14T04:03:19;5.17;;;4.67;;
10725;SDS011;5414;59.782;16.378;2023-06-14T04:05:48;6.00;;;4.47;;
10725;SDS011;5414;59.782;16.378;2023-06-14T04:08:14;4.30;;;4.00;;
10725;SDS011;5414;59.782;16.378;2023-06-14T04:10:41;5.60;;;3.87;;
10725;SDS011;5414;59.782;16.378;2023-06-14T04:13:07;5.43;;;3.87;;
10725;SDS011;5414;59.782;16.378;2023-06-14T04:15:37;3.93;;;3.63;;
10725;SDS011;5414;59.782;16.378;2023-06-14T04:18:07;5.03;;;3.73;;
10725;SDS011;5414;59.782;16.378;2023-06-14T04:20:33;4.80;;;4.17;;
10725;SDS011;5414;59.782;16.378;2023-06-14T04:23:10;4.93;;;4.00;;
10725;SDS011;5414;59.782;16.378;2023-06-14T04:25:37;4.80;;;3.90;;
10725;SDS011;5414;59.782;16.378;2023-06-14T04:28:03;4.73;;;3.80;;
10725;SDS011;5414;59.782;16.378;2023-06-14T04:30:30;7.13;;;4.10;;
10725;SDS011;5414;59.782;16.378;2023-06-14T04:32:56;7.67;;;4.00;;
10725;SDS011;5414;59.782;16.378;2023-06-14T04:35:22;6.93;;;4.00;;
10725;SDS011;5414;59.782;16.378;2023-06-14T04:37:53;5.57;;;3.60;;
10725;SDS011;5414;59.782;16.378;2023-06-14T04:40:20;3.80;;;3.50;;
10725;SDS011;5414;59.782;16.378;2023-06-14T04:42:46;3.90;;;3.50;;
10725;SDS011;5414;59.782;16.378;2023-06-14T04:45:12;6.50;;;4.27;;
10725;SDS011;5414;59.782;16.378;2023-06-14T04:47:40;5.63;;;4.20;;
10725;SDS011;5414;59.782;16.378;2023-06-14T04:50:07;4.13;;;3.70;;
10725;SDS011;5414;59.782;16.378;2023-06-14T04:52:33;5.17;;;3.60;;
10725;SDS011;5414;59.782;16.378;2023-06-14T04:55:00;8.23;;;4.47;;
10725;SDS011;5414;59.782;16.378;2023-06-14T04:57:26;14.10;;;4.40;;
10725;SDS011;5414;59.782;16.378;2023-06-14T04:59:53;10.00;;;4.23;;
10725;SDS011;5414;59.782;16.378;2023-06-14T05:02:23;5.93;;;4.17;;
10725;SDS011;5414;59.782;16.378;2023-06-14T05:04:49;5.07;;;3.73;;
10725;SDS011;5414;59.782;16.378;2023-06-14T05:07:16;5.57;;;4.03;;
10725;SDS011;5414;59.782;16.378;2023-06-14T05:09:42;7.80;;;4.20;;
10725;SDS011;5414;59.782;16.378;2023-06-14T05:12:08;6.40;;;3.70;;
10725;SDS011;5414;59.782;16.378;2023-06-14T05:14:35;3.93;;;3.50;;
10725;SDS011;5414;59.782;16.378;2023-06-14T05:17:01;5.07;;;3.97;;
10725;SDS011;5414;59.782;16.378;2023-06-14T05:19:30;4.20;;;3.70;;
10725;SDS011;5414;59.782;16.378;2023-06-14T05:21:56;4.50;;;3.77;;
10725;SDS011;5414;59.782;16.378;2023-06-14T05:24:23;5.70;;;4.07;;
10725;SDS011;5414;59.782;16.378;2023-06-14T05:26:49;3.83;;;3.50;;
10725;SDS011;5414;59.782;16.378;2023-06-14T05:29:15;5.17;;;4.10;;
10725;SDS011;5414;59.782;16.378;2023-06-14T05:31:41;7.07;;;4.17;;
10725;SDS011;5414;59.782;16.378;2023-06-14T05:34:07;3.93;;;3.63;;
10725;SDS011;5414;59.782;16.378;2023-06-14T05:36:33;5.17;;;3.90;;
10725;SDS011;5414;59.782;16.378;2023-06-14T05:39:01;4.80;;;4.30;;
10725;SDS011;5414;59.782;16.378;2023-06-14T05:41:28;4.17;;;3.73;;
10725;SDS011;5414;59.782;16.378;2023-06-14T05:43:54;3.83;;;3.50;;
10725;SDS011;5414;59.782;16.378;2023-06-14T05:46:21;3.90;;;3.60;;
10725;SDS011;5414;59.782;16.378;2023-06-14T05:48:49;4.30;;;3.90;;
10725;SDS011;5414;59.782;16.378;2023-06-14T05:51:15;4.40;;;4.00;;
10725;SDS011;5414;59.782;16.378;2023-06-14T05:53:43;5.47;;;3.63;;
10725;SDS011;5414;59.782;16.378;2023-06-14T05:56:10;5.27;;;4.07;;
10725;SDS011;5414;59.782;16.378;2023-06-14T05:58:36;6.80;;;4.17;;
10725;SDS011;5414;59.782;16.378;2023-06-14T06:01:02;4.47;;;4.00;;
10725;SDS011;5414;59.782;16.378;2023-06-14T06:03:28;5.57;;;3.70;;
10725;SDS011;5414;59.782;16.378;2023-06-14T06:05:54;5.80;;;3.73;;
10725;SDS011;5414;59.782;16.378;2023-06-14T06:08:20;5.40;;;4.00;;
10725;SDS011;5414;59.782;16.378;2023-06-14T06:10:46;5.33;;;3.63;;
10725;SDS011;5414;59.782;16.378;2023-06-14T06:13:12;5.17;;;3.90;;
10725;SDS011;5414;59.782;16.378;2023-06-14T06:15:38;4.87;;;3.90;;
10725;SDS011;5414;59.782;16.378;2023-06-14T06:18:04;4.70;;;4.00;;
10725;SDS011;5414;59.782;16.378;2023-06-14T06:20:31;6.00;;;4.10;;
10725;SDS011;5414;59.782;16.378;2023-06-14T06:23:00;5.60;;;3.90;;
10725;SDS011;5414;59.782;16.378;2023-06-14T06:25:26;5.83;;;4.00;;
10725;SDS011;5414;59.782;16.378;2023-06-14T06:27:55;5.80;;;4.43;;
10725;SDS011;5414;59.782;16.378;2023-06-14T06:30:22;6.00;;;4.00;;
10725;SDS011;5414;59.782;16.378;2023-06-14T06:32:48;6.23;;;4.13;;
10725;SDS011;5414;59.782;16.378;2023-06-14T06:35:14;4.83;;;4.03;;
10725;SDS011;5414;59.782;16.378;2023-06-14T06:37:43;5.67;;;3.93;;
10725;SDS011;5414;59.782;16.378;2023-06-14T06:40:09;6.67;;;4.13;;
10725;SDS011;5414;59.782;16.378;2023-06-14T06:42:36;5.03;;;4.37;;
10725;SDS011;5414;59.782;16.378;2023-06-14T06:45:02;5.50;;;3.87;;
10725;SDS011;5414;59.782;16.378;2023-06-14T06:47:28;5.57;;;3.70;;
10725;SDS011;5414;59.782;16.378;2023-06-14T06:49:55;5.43;;;4.00;;
10725;SDS011;5414;59.782;16.378;2023-06-14T06:52:21;4.60;;;3.77;;
10725;SDS011;5414;59.782;16.378;2023-06-14T06:54:47;5.07;;;4.13;;
10725;SDS011;5414;59.782;16.378;2023-06-14T06:57:14;4.67;;;3.53;;
10725;SDS011;5414;59.782;16.378;2023-06-14T06:59:40;6.40;;;3.93;;
10725;SDS011;5414;59.782;16.378;2023-06-14T07:02:06;4.80;;;3.65;;
10725;SDS011;5414;59.782;16.378;2023-06-14T07:04:32;5.95;;;3.88;;
10725;SDS011;5414;59.782;16.378;2023-06-14T07:06:58;4.40;;;4.00;;
10725;SDS011;5414;59.782;16.378;2023-06-14T07:09:24;5.43;;;3.90;;
10725;SDS011;5414;59.782;16.378;2023-06-14T07:11:50;3.67;;;3.38;;
10725;SDS011;5414;59.782;16.378;2023-06-14T07:14:17;4.05;;;3.60;;
10725;SDS011;5414;59.782;16.378;2023-06-14T07:16:43;7.03;;;3.88;;
10725;SDS011;5414;59.782;16.378;2023-06-14T07:19:09;4.82;;;3.63;;
10725;SDS011;5414;59.782;16.378;2023-06-14T07:21:35;4.93;;;3.75;;
10725;SDS011;5414;59.782;16.378;2023-06-14T07:24:04;3.97;;;3.45;;
10725;SDS011;5414;59.782;16.378;2023-06-14T07:26:31;4.38;;;3.65;;
10725;SDS011;5414;59.782;16.378;2023-06-14T07:28:57;6.85;;;4.05;;
10725;SDS011;5414;59.782;16.378;2023-06-14T07:31:24;6.45;;;3.97;;
10725;SDS011;5414;59.782;16.378;2023-06-14T07:33:51;4.32;;;3.92;;
10725;SDS011;5414;59.782;16.378;2023-06-14T07:36:17;5.97;;;4.68;;
10725;SDS011;5414;59.782;16.378;2023-06-14T07:38:43;3.67;;;3.35;;
10725;SDS011;5414;59.782;16.378;2023-06-14T07:41:10;4.45;;;3.60;;
10725;SDS011;5414;59.782;16.378;2023-06-14T07:43:36;6.32;;;3.42;;
10725;SDS011;5414;59.782;16.378;2023-06-14T07:46:02;4.03;;;3.70;;
10725;SDS011;5414;59.782;16.378;2023-06-14T07:48:28;4.22;;;3.83;;
10725;SDS011;5414;59.782;16.378;2023-06-14T07:50:54;5.75;;;4.10;;
10725;SDS011;5414;59.782;16.378;2023-06-14T07:53:20;3.97;;;3.67;;
10725;SDS011;5414;59.782;16.378;2023-06-14T07:55:46;4.03;;;3.63;;
10725;SDS011;5414;59.782;16.378;2023-06-14T07:58:13;3.88;;;3.47;;
10725;SDS011;5414;59.782;16.378;2023-06-14T08:00:40;3.95;;;3.55;;
10725;SDS011;5414;59.782;16.378;2023-06-14T08:03:06;5.35;;;3.65;;
10725;SDS011;5414;59.782;16.378;2023-06-14T08:05:32;4.05;;;3.65;;
10725;SDS011;5414;59.782;16.378;2023-06-14T08:07:59;4.10;;;3.70;;
10725;SDS011;5414;59.782;16.378;2023-06-14T08:10:25;4.07;;;3.78;;
10725;SDS011;5414;59.782;16.378;2023-06-14T08:12:51;3.90;;;3.60;;
10725;SDS011;5414;59.782;16.378;2023-06-14T08:15:17;5.03;;;3.65;;
10725;SDS011;5414;59.782;16.378;2023-06-14T08:17:44;4.10;;;3.70;;
10725;SDS011;5414;59.782;16.378;2023-06-14T08:20:10;4.32;;;3.92;;
10725;SDS011;5414;59.782;16.378;2023-06-14T08:22:36;3.72;;;3.42;;
10725;SDS011;5414;59.782;16.378;2023-06-14T08:25:02;4.28;;;3.88;;
10725;SDS011;5414;59.782;16.378;2023-06-14T08:27:28;3.85;;;3.45;;
10725;SDS011;5414;59.782;16.378;2023-06-14T08:29:54;4.18;;;3.63;;
10725;SDS011;5414;59.782;16.378;2023-06-14T08:32:21;4.25;;;3.85;;
10725;SDS011;5414;59.782;16.378;2023-06-14T08:34:47;4.10;;;3.70;;
10725;SDS011;5414;59.782;16.378;2023-06-14T08:37:13;3.90;;;3.60;;
10725;SDS011;5414;59.782;16.378;2023-06-14T08:39:39;4.30;;;3.90;;
10725;SDS011;5414;59.782;16.378;2023-06-14T08:42:05;4.13;;;3.72;;
10725;SDS011;5414;59.782;16.378;2023-06-14T08:44:32;4.28;;;3.83;;
10725;SDS011;5414;59.782;16.378;2023-06-14T08:47:02;4.50;;;3.78;;
10725;SDS011;5414;59.782;16.378;2023-06-14T08:49:31;4.32;;;3.88;;
10725;SDS011;5414;59.782;16.378;2023-06-14T08:51:57;4.13;;;3.72;;
10725;SDS011;5414;59.782;16.378;2023-06-14T08:54:25;4.75;;;3.70;;
10725;SDS011;5414;59.782;16.378;2023-06-14T08:56:53;4.72;;;4.10;;
10725;SDS011;5414;59.782;16.378;2023-06-14T08:59:31;4.78;;;4.07;;
10725;SDS011;5414;59.782;16.378;2023-06-14T09:02:04;6.13;;;4.00;;
10725;SDS011;5414;59.782;16.378;2023-06-14T09:04:30;4.03;;;3.58;;
10725;SDS011;5414;59.782;16.378;2023-06-14T09:06:58;4.57;;;4.10;;
10725;SDS011;5414;59.782;16.378;2023-06-14T09:09:24;4.40;;;3.95;;
10725;SDS011;5414;59.782;16.378;2023-06-14T09:11:51;5.22;;;4.32;;
10725;SDS011;5414;59.782;16.378;2023-06-14T09:14:20;5.18;;;3.90;;
10725;SDS011;5414;59.782;16.378;2023-06-14T09:16:46;4.82;;;3.83;;
10725;SDS011;5414;59.782;16.378;2023-06-14T09:19:21;4.60;;;4.20;;
10725;SDS011;5414;59.782;16.378;2023-06-14T09:21:47;4.43;;;3.80;;
10725;SDS011;5414;59.782;16.378;2023-06-14T09:24:14;4.38;;;4.00;;
10725;SDS011;5414;59.782;16.378;2023-06-14T09:26:40;5.15;;;4.07;;
10725;SDS011;5414;59.782;16.378;2023-06-14T09:29:06;4.30;;;3.80;;
10725;SDS011;5414;59.782;16.378;2023-06-14T09:31:32;4.75;;;4.10;;
10725;SDS011;5414;59.782;16.378;2023-06-14T09:33:58;4.68;;;3.65;;
10725;SDS011;5414;59.782;16.378;2023-06-14T09:36:27;3.90;;;3.60;;
10725;SDS011;5414;59.782;16.378;2023-06-14T09:38:57;4.45;;;4.05;;
10725;SDS011;5414;59.782;16.378;2023-06-14T09:41:36;5.82;;;3.95;;
10725;SDS011;5414;59.782;16.378;2023-06-14T09:44:03;4.40;;;4.00;;
10725;SDS011;5414;59.782;16.378;2023-06-14T09:46:29;5.90;;;4.10;;
10725;SDS011;5414;59.782;16.378;2023-06-14T09:48:56;4.65;;;4.00;;
10725;SDS011;5414;59.782;16.378;2023-06-14T09:51:22;6.55;;;4.30;;
10725;SDS011;5414;59.782;16.378;2023-06-14T09:53:48;4.60;;;4.20;;
10725;SDS011;5414;59.782;16.378;2023-06-14T09:56:22;4.15;;;3.85;;
10725;SDS011;5414;59.782;16.378;2023-06-14T09:58:49;4.05;;;3.72;;
10725;SDS011;5414;59.782;16.378;2023-06-14T10:01:18;4.20;;;3.80;;
10725;SDS011;5414;59.782;16.378;2023-06-14T10:03:44;4.40;;;3.85;;
10725;SDS011;5414;59.782;16.378;2023-06-14T10:06:11;4.75;;;4.13;;
10725;SDS011;5414;59.782;16.378;2023-06-14T10:08:37;4.25;;;3.80;;
10725;SDS011;5414;59.782;16.378;2023-06-14T10:11:04;4.32;;;3.90;;
10725;SDS011;5414;59.782;16.378;2023-06-14T10:13:31;4.28;;;3.90;;
10725;SDS011;5414;59.782;16.378;2023-06-14T10:16:09;4.20;;;3.88;;
10725;SDS011;5414;59.782;16.378;2023-06-14T10:18:50;5.50;;;3.75;;
10725;SDS011;5414;59.782;16.378;2023-06-14T10:21:23;6.63;;;4.10;;
10725;SDS011;5414;59.782;16.378;2023-06-14T10:23:53;4.45;;;4.15;;
10725;SDS011;5414;59.782;16.378;2023-06-14T10:26:20;4.47;;;4.07;;
10725;SDS011;5414;59.782;16.378;2023-06-14T10:29:08;4.47;;;4.07;;
10725;SDS011;5414;59.782;16.378;2023-06-14T10:31:44;4.40;;;4.00;;
10725;SDS011;5414;59.782;16.378;2023-06-14T10:34:11;3.90;;;3.65;;
10725;SDS011;5414;59.782;16.378;2023-06-14T10:36:38;4.25;;;3.90;;
10725;SDS011;5414;59.782;16.378;2023-06-14T10:39:07;4.35;;;3.95;;
10725;SDS011;5414;59.782;16.378;2023-06-14T10:41:42;4.50;;;4.10;;
10725;SDS011;5414;59.782;16.378;2023-06-14T10:49:20;6.30;;;4.65;;
10725;SDS011;5414;59.782;16.378;2023-06-14T10:51:49;4.78;;;4.38;;
10725;SDS011;5414;59.782;16.378;2023-06-14T10:54:16;4.13;;;3.83;;
10725;SDS011;5414;59.782;16.378;2023-06-14T10:56:46;4.25;;;3.83;;
10725;SDS011;5414;59.782;16.378;2023-06-14T10:59:13;5.28;;;4.25;;
10725;SDS011;5414;59.782;16.378;2023-06-14T11:04:28;5.90;;;4.18;;
10725;SDS011;5414;59.782;16.378;2023-06-14T11:07:18;4.47;;;4.10;;
10725;SDS011;5414;59.782;16.378;2023-06-14T11:12:14;4.93;;;4.50;;
10725;SDS011;5414;59.782;16.378;2023-06-14T11:14:41;4.20;;;3.80;;
10725;SDS011;5414;59.782;16.378;2023-06-14T11:17:07;4.47;;;4.07;;
10725;SDS011;5414;59.782;16.378;2023-06-14T11:19:33;4.80;;;4.40;;
10725;SDS011;5414;59.782;16.378;2023-06-14T11:21:59;7.18;;;4.65;;
10725;SDS011;5414;59.782;16.378;2023-06-14T11:24:25;7.10;;;4.25;;
10725;SDS011;5414;59.782;16.378;2023-06-14T11:26:51;4.25;;;3.80;;
10725;SDS011;5414;59.782;16.378;2023-06-14T11:29:19;4.55;;;4.13;;
10725;SDS011;5414;59.782;16.378;2023-06-14T11:31:46;4.63;;;4.25;;
10725;SDS011;5414;59.782;16.378;2023-06-14T11:34:12;4.40;;;4.00;;
10725;SDS011;5414;59.782;16.378;2023-06-14T11:36:39;4.82;;;3.90;;
10725;SDS011;5414;59.782;16.378;2023-06-14T11:39:05;5.35;;;4.50;;
10725;SDS011;5414;59.782;16.378;2023-06-14T11:41:44;4.97;;;4.30;;
10725;SDS011;5414;59.782;16.378;2023-06-14T11:44:11;4.93;;;4.40;;
10725;SDS011;5414;59.782;16.378;2023-06-14T11:46:37;4.72;;;4.18;;
10725;SDS011;5414;59.782;16.378;2023-06-14T11:49:04;4.95;;;4.43;;
10725;SDS011;5414;59.782;16.378;2023-06-14T11:51:32;4.32;;;4.03;;
10725;SDS011;5414;59.782;16.378;2023-06-14T11:53:59;4.70;;;4.30;;
10725;SDS011;5414;59.782;16.378;2023-06-14T11:56:25;4.97;;;4.55;;
10725;SDS011;5414;59.782;16.378;2023-06-14T11:58:52;6.95;;;4.40;;
10725;SDS011;5414;59.782;16.378;2023-06-14T12:01:21;4.65;;;4.07;;
10725;SDS011;5414;59.782;16.378;2023-06-14T12:03:48;4.80;;;4.15;;
10725;SDS011;5414;59.782;16.378;2023-06-14T12:06:14;4.85;;;4.15;;
10725;SDS011;5414;59.782;16.378;2023-06-14T12:08:40;4.68;;;4.07;;
10725;SDS011;5414;59.782;16.378;2023-06-14T12:11:13;4.70;;;4.30;;
10725;SDS011;5414;59.782;16.378;2023-06-14T12:13:40;5.25;;;4.25;;
10725;SDS011;5414;59.782;16.378;2023-06-14T12:16:07;5.75;;;4.20;;
10725;SDS011;5414;59.782;16.378;2023-06-14T12:18:34;5.97;;;4.00;;
10725;SDS011;5414;59.782;16.378;2023-06-14T12:21:00;4.75;;;4.35;;
10725;SDS011;5414;59.782;16.378;2023-06-14T12:23:27;4.53;;;4.22;;
10725;SDS011;5414;59.782;16.378;2023-06-14T12:26:04;4.40;;;4.00;;
10725;SDS011;5414;59.782;16.378;2023-06-14T12:28:31;4.90;;;4.50;;
10725;SDS011;5414;59.782;16.378;2023-06-14T12:30:57;5.20;;;4.20;;
10725;SDS011;5414;59.782;16.378;2023-06-14T12:33:24;5.10;;;4.30;;
10725;SDS011;5414;59.782;16.378;2023-06-14T12:35:50;4.90;;;4.50;;
10725;SDS011;5414;59.782;16.378;2023-06-14T12:38:16;4.65;;;4.22;;
10725;SDS011;5414;59.782;16.378;2023-06-14T12:40:42;4.75;;;4.30;;
10725;SDS011;5414;59.782;16.378;2023-06-14T12:43:08;6.55;;;4.93;;
10725;SDS011;5414;59.782;16.378;2023-06-14T12:45:34;4.70;;;4.30;;
10725;SDS011;5414;59.782;16.378;2023-06-14T12:48:00;5.03;;;4.63;;
10725;SDS011;5414;59.782;16.378;2023-06-14T12:50:27;5.18;;;4.68;;
10725;SDS011;5414;59.782;16.378;2023-06-14T12:52:53;5.28;;;4.78;;
10725;SDS011;5414;59.782;16.378;2023-06-14T12:55:19;5.53;;;5.03;;
10725;SDS011;5414;59.782;16.378;2023-06-14T12:57:45;5.05;;;4.30;;
10725;SDS011;5414;59.782;16.378;2023-06-14T13:00:11;7.05;;;4.60;;
10725;SDS011;5414;59.782;16.378;2023-06-14T13:02:38;4.97;;;4.38;;
10725;SDS011;5414;59.782;16.378;2023-06-14T13:05:04;6.22;;;4.20;;
10725;SDS011;5414;59.782;16.378;2023-06-14T13:07:30;5.20;;;4.80;;
10725;SDS011;5414;59.782;16.378;2023-06-14T13:09:56;5.22;;;4.72;;
10725;SDS011;5414;59.782;16.378;2023-06-14T13:12:22;5.80;;;4.60;;
10725;SDS011;5414;59.782;16.378;2023-06-14T13:14:48;4.93;;;4.43;;
10725;SDS011;5414;59.782;16.378;2023-06-14T13:17:14;4.90;;;4.40;;
10725;SDS011;5414;59.782;16.378;2023-06-14T13:19:40;4.60;;;4.25;;
10725;SDS011;5414;59.782;16.378;2023-06-14T13:22:07;4.85;;;4.47;;
10725;SDS011;5414;59.782;16.378;2023-06-14T13:24:33;5.00;;;4.45;;
10725;SDS011;5414;59.782;16.378;2023-06-14T13:26:59;4.93;;;4.53;;
10725;SDS011;5414;59.782;16.378;2023-06-14T13:29:26;5.38;;;4.63;;
10725;SDS011;5414;59.782;16.378;2023-06-14T13:31:52;5.35;;;4.88;;
10725;SDS011;5414;59.782;16.378;2023-06-14T13:34:18;6.72;;;5.25;;
10725;SDS011;5414;59.782;16.378;2023-06-14T13:36:45;5.40;;;4.68;;
10725;SDS011;5414;59.782;16.378;2023-06-14T13:39:11;4.90;;;4.43;;
10725;SDS011;5414;59.782;16.378;2023-06-14T13:41:37;5.35;;;4.88;;
10725;SDS011;5414;59.782;16.378;2023-06-14T13:44:03;5.30;;;4.80;;
10725;SDS011;5414;59.782;16.378;2023-06-14T13:46:29;4.90;;;4.50;;
10725;SDS011;5414;59.782;16.378;2023-06-14T13:48:56;5.10;;;4.70;;
10725;SDS011;5414;59.782;16.378;2023-06-14T13:51:23;5.88;;;5.30;;
10725;SDS011;5414;59.782;16.378;2023-06-14T13:53:49;5.68;;;4.95;;
10725;SDS011;5414;59.782;16.378;2023-06-14T13:56:16;5.07;;;4.60;;
10725;SDS011;5414;59.782;16.378;2023-06-14T13:58:42;6.28;;;4.70;;
10725;SDS011;5414;59.782;16.378;2023-06-14T14:01:08;5.25;;;4.65;;
10725;SDS011;5414;59.782;16.378;2023-06-14T14:03:35;5.13;;;4.72;;
10725;SDS011;5414;59.782;16.378;2023-06-14T14:06:01;6.03;;;5.15;;
10725;SDS011;5414;59.782;16.378;2023-06-14T14:08:28;5.13;;;4.63;;
10725;SDS011;5414;59.782;16.378;2023-06-14T14:10:54;5.30;;;4.78;;
10725;SDS011;5414;59.782;16.378;2023-06-14T14:13:21;5.80;;;5.13;;
10725;SDS011;5414;59.782;16.378;2023-06-14T14:15:47;5.65;;;5.00;;
10725;SDS011;5414;59.782;16.378;2023-06-14T14:18:14;5.35;;;4.80;;
10725;SDS011;5414;59.782;16.378;2023-06-14T14:20:40;5.18;;;4.70;;
10725;SDS011;5414;59.782;16.378;2023-06-14T14:23:06;5.63;;;4.70;;
10725;SDS011;5414;59.782;16.378;2023-06-14T14:25:32;5.63;;;5.03;;
10725;SDS011;5414;59.782;16.378;2023-06-14T14:27:58;5.22;;;4.82;;
10725;SDS011;5414;59.782;16.378;2023-06-14T14:30:24;6.97;;;4.85;;
10725;SDS011;5414;59.782;16.378;2023-06-14T14:32:50;5.07;;;4.78;;
10725;SDS011;5414;59.782;16.378;2023-06-14T14:35:17;5.38;;;4.70;;
10725;SDS011;5414;59.782;16.378;2023-06-14T14:37:43;4.97;;;4.57;;
10725;SDS011;5414;59.782;16.378;2023-06-14T14:40:10;6.78;;;5.22;;
10725;SDS011;5414;59.782;16.378;2023-06-14T14:42:36;5.68;;;5.18;;
10725;SDS011;5414;59.782;16.378;2023-06-14T14:45:03;6.28;;;4.80;;
10725;SDS011;5414;59.782;16.378;2023-06-14T14:47:29;5.22;;;4.70;;
10725;SDS011;5414;59.782;16.378;2023-06-14T14:49:55;5.63;;;5.13;;
10725;SDS011;5414;59.782;16.378;2023-06-14T14:52:21;5.50;;;4.82;;
10725;SDS011;5414;59.782;16.378;2023-06-14T14:54:47;5.65;;;4.95;;
10725;SDS011;5414;59.782;16.378;2023-06-14T14:57:13;5.30;;;4.80;;
10725;SDS011;5414;59.782;16.378;2023-06-14T14:59:39;5.28;;;4.85;;